CSC3 weather

Drummondville Airport
Drummondville, Quebec, Canada

Public forecast

Using degrees Celsius for public forecast. Weather courtesy of forecast.io.

Closest aviation weather report (METAR) to Drummondville Airport

Closest report is Trois-Rivières Airport, 32.7 nm (60.6 km) NNW. Retrieved 2020/06/04 05:18 UTC (10 minutes ago):

CYRQ 040518Z AUTO 22004KT 2 1/4SM BR OVC150 10/10 A2961 RMK SLP028

Closest aviation forecast (TAF) to Drummondville Airport

Closest forecast is Trois-Rivières Airport, 32.7 nm (60.6 km) NNW. Retrieved 2020-06-04 02:00 UTC (3 hours ago):

TAF CYRQ 040138Z 0402/0414 22008G18KT P6SM BKN100 BECMG 0403/0405 VRB03KT FM040500 VRB03KT P6SM SCT100 BECMG 0410/0412 23008KT RMK FCST BASED ON AUTO OBS NXT FCST BY 040800Z